createdAt,value
2023-02-14T00:00:29.084Z,76.11
2023-02-14T00:02:59.792Z,75.65
2023-02-14T00:05:31.029Z,75.56
2023-02-14T00:08:01.782Z,75.92
2023-02-14T00:10:32.445Z,77.18
2023-02-14T00:13:03.150Z,77.24
2023-02-14T00:15:33.825Z,77.68
2023-02-14T00:18:06.234Z,76.81
2023-02-14T00:20:37.084Z,76.94
2023-02-14T00:23:07.831Z,76.44
2023-02-14T00:25:38.642Z,76.36
2023-02-14T00:28:09.367Z,76.67
2023-02-14T00:30:40.103Z,77.60
2023-02-14T00:33:10.747Z,77.57
2023-02-14T00:35:42.061Z,77.62
2023-02-14T00:38:12.744Z,76.90
2023-02-14T00:40:43.676Z,76.89
2023-02-14T00:43:14.265Z,77.40
2023-02-14T00:45:44.941Z,77.37
2023-02-14T00:48:15.689Z,76.09
2023-02-14T00:50:47.256Z,75.93
2023-02-14T00:53:17.948Z,75.90
2023-02-14T00:55:49.175Z,75.73
2023-02-14T00:58:19.801Z,75.95
2023-02-14T01:00:51.634Z,76.30
2023-02-14T01:03:24.011Z,76.49
2023-02-14T01:05:55.553Z,76.88
2023-02-14T01:08:27.757Z,77.07
2023-02-14T01:10:58.630Z,76.99
2023-02-14T01:13:30.657Z,77.21
2023-02-14T01:16:06.509Z,77.24
2023-02-14T01:18:37.594Z,77.73
2023-02-14T01:21:18.003Z,77.87
2023-02-14T01:23:50.718Z,77.97
2023-02-14T01:26:24.389Z,78.17
2023-02-14T01:28:55.416Z,77.61
2023-02-14T01:31:29.171Z,77.47
2023-02-14T01:34:01.855Z,77.51
2023-02-14T01:36:34.802Z,76.96
2023-02-14T01:39:07.917Z,76.77
2023-02-14T01:41:41.446Z,76.78
2023-02-14T01:44:43.074Z,76.91
2023-02-14T01:47:15.162Z,76.99
2023-02-14T01:49:50.465Z,76.22
2023-02-14T01:52:25.008Z,75.06
2023-02-14T01:55:01.126Z,74.81
2023-02-14T01:57:38.565Z,75.21
2023-02-14T02:00:29.661Z,75.10
2023-02-14T02:03:00.497Z,76.07
2023-02-14T02:05:31.578Z,76.21
2023-02-14T02:08:03.302Z,76.10
2023-02-14T02:10:33.994Z,76.29
2023-02-14T02:13:07.398Z,76.53
2023-02-14T02:15:46.805Z,76.03
2023-02-14T02:18:27.206Z,75.71
2023-02-14T02:21:28.174Z,75.38
2023-02-14T02:24:23.331Z,75.69
2023-02-14T02:27:34.255Z,75.93
2023-02-14T02:30:35.623Z,75.97
2023-02-14T02:33:45.353Z,75.90
2023-02-14T02:36:56.260Z,74.87
2023-02-14T02:39:43.117Z,75.21
2023-02-14T02:42:25.872Z,75.56
2023-02-14T02:45:05.561Z,75.01
2023-02-14T02:47:44.000Z,75.47
2023-02-14T02:50:41.486Z,75.65
2023-02-14T02:53:19.809Z,75.53
2023-02-14T02:56:14.324Z,75.15
2023-02-14T02:58:47.800Z,75.65
2023-02-14T03:01:24.418Z,75.85
2023-02-14T03:04:18.894Z,75.87
2023-02-14T03:06:50.373Z,75.35
2023-02-14T03:09:59.852Z,74.93
2023-02-14T03:12:55.950Z,75.31
2023-02-14T03:15:37.574Z,75.40
2023-02-14T03:18:29.824Z,74.91
2023-02-14T03:21:15.616Z,74.42
2023-02-14T03:23:50.692Z,74.51
2023-02-14T03:26:27.712Z,74.62
2023-02-14T03:29:05.549Z,75.58
2023-02-14T03:31:41.982Z,76.11
2023-02-14T03:34:18.253Z,75.47
2023-02-14T03:36:53.652Z,75.32
2023-02-14T03:39:28.250Z,75.83
2023-02-14T03:42:06.082Z,76.07
2023-02-14T03:44:39.257Z,75.75
2023-02-14T03:47:13.340Z,75.83
2023-02-14T03:49:47.975Z,75.70
2023-02-14T03:52:21.041Z,75.42
2023-02-14T03:54:55.136Z,75.84
2023-02-14T03:57:29.819Z,75.27
2023-02-14T04:00:00.623Z,74.44
2023-02-14T04:02:36.056Z,74.59
2023-02-14T04:05:13.468Z,74.85
2023-02-14T04:07:52.207Z,74.91
2023-02-14T04:10:24.400Z,75.14
2023-02-14T04:12:55.221Z,75.44
2023-02-14T04:15:25.963Z,75.48
2023-02-14T04:18:14.570Z,75.36
2023-02-14T04:20:45.363Z,75.37
2023-02-14T04:23:16.231Z,75.34
2023-02-14T04:25:47.076Z,75.36
2023-02-14T04:28:17.993Z,75.06
2023-02-14T04:30:48.605Z,74.59
2023-02-14T04:33:19.456Z,73.87
2023-02-14T04:35:50.577Z,74.53
2023-02-14T04:38:21.310Z,74.61
2023-02-14T04:40:53.217Z,74.48
2023-02-14T04:43:23.933Z,75.05
2023-02-14T04:45:54.531Z,75.04
2023-02-14T04:48:25.135Z,74.29
2023-02-14T04:50:56.376Z,73.97
2023-02-14T04:53:27.018Z,75.12
2023-02-14T04:55:57.778Z,75.30
2023-02-14T04:58:28.604Z,74.76
2023-02-14T05:00:59.534Z,75.20
2023-02-14T05:03:30.542Z,75.53
2023-02-14T05:06:01.326Z,75.45
2023-02-14T05:08:32.034Z,75.39
2023-02-14T05:11:02.647Z,75.31
2023-02-14T05:13:33.407Z,74.78
2023-02-14T05:16:05.059Z,74.63
2023-02-14T05:18:35.696Z,75.14
2023-02-14T05:21:07.392Z,74.57
2023-02-14T05:23:38.246Z,74.62
2023-02-14T05:26:09.160Z,74.68
2023-02-14T05:28:41.086Z,74.25
2023-02-14T05:31:11.936Z,74.87
2023-02-14T05:33:42.868Z,74.84
2023-02-14T05:36:13.793Z,74.55
2023-02-14T05:38:44.427Z,74.62
2023-02-14T05:41:15.295Z,74.06
2023-02-14T05:43:45.918Z,74.49
2023-02-14T05:46:16.715Z,74.70
2023-02-14T05:48:47.428Z,74.47
2023-02-14T05:51:18.141Z,73.80
2023-02-14T05:53:48.798Z,73.79
2023-02-14T05:56:19.611Z,73.65
2023-02-14T05:58:50.217Z,74.09
2023-02-14T06:01:20.980Z,73.49
2023-02-14T06:03:51.788Z,73.97
2023-02-14T06:06:22.512Z,74.35
2023-02-14T06:08:53.250Z,74.40
2023-02-14T06:11:23.933Z,73.96
2023-02-14T06:13:54.708Z,73.46
2023-02-14T06:16:25.428Z,73.88
2023-02-14T06:18:56.251Z,73.96
2023-02-14T06:21:27.015Z,73.93
2023-02-14T06:23:57.718Z,73.94
2023-02-14T06:26:28.932Z,74.07
2023-02-14T06:29:00.748Z,72.74
2023-02-14T06:31:31.797Z,72.74
2023-02-14T06:34:02.554Z,74.11
2023-02-14T06:36:33.238Z,73.88
2023-02-14T06:39:04.044Z,74.39
2023-02-14T06:41:34.713Z,76.17
2023-02-14T06:44:05.599Z,76.66
2023-02-14T06:46:36.339Z,76.69
2023-02-14T06:49:07.116Z,76.13
2023-02-14T06:51:37.739Z,76.27
2023-02-14T06:54:08.838Z,76.11
2023-02-14T06:56:39.528Z,76.85
2023-02-14T06:59:10.211Z,78.73
2023-02-14T07:01:40.859Z,75.76
2023-02-14T07:04:11.840Z,72.00
2023-02-14T07:06:42.723Z,70.74
2023-02-14T07:09:16.868Z,70.72
2023-02-14T07:11:48.608Z,70.44
2023-02-14T07:14:19.428Z,70.65
2023-02-14T07:16:51.096Z,70.24
2023-02-14T07:19:21.850Z,70.51
2023-02-14T07:21:52.526Z,70.19
2023-02-14T07:24:23.286Z,70.31
2023-02-14T07:26:54.024Z,70.23
2023-02-14T07:29:24.802Z,70.27
2023-02-14T07:31:55.658Z,70.14
2023-02-14T07:34:27.356Z,70.42
2023-02-14T07:36:58.168Z,70.43
2023-02-14T07:39:29.109Z,70.30
2023-02-14T07:41:59.904Z,70.26
2023-02-14T07:44:30.743Z,70.42
2023-02-14T07:47:01.367Z,70.52
2023-02-14T07:49:32.130Z,70.11
2023-02-14T07:52:03.805Z,70.17
2023-02-14T07:54:34.521Z,70.35
2023-02-14T07:57:05.334Z,70.36
2023-02-14T07:59:36.379Z,70.23
2023-02-14T08:02:07.482Z,70.25
2023-02-14T08:04:38.385Z,70.11
2023-02-14T08:07:09.078Z,69.92
2023-02-14T08:09:39.861Z,70.21
2023-02-14T08:12:28.734Z,70.30
2023-02-14T08:15:19.652Z,70.50
2023-02-14T08:17:51.355Z,70.60
2023-02-14T08:20:22.354Z,70.57
2023-02-14T08:22:53.371Z,70.43
2023-02-14T08:25:24.397Z,70.43
2023-02-14T08:27:55.854Z,70.57
2023-02-14T08:30:27.406Z,70.46
2023-02-14T08:32:58.398Z,70.45
2023-02-14T08:35:29.194Z,70.24
2023-02-14T08:37:59.975Z,70.53
2023-02-14T08:40:31.160Z,70.57
2023-02-14T08:43:02.019Z,70.76
2023-02-14T08:45:32.799Z,70.45
2023-02-14T08:48:08.567Z,70.58
2023-02-14T08:50:40.683Z,70.65
2023-02-14T08:53:13.283Z,70.65
2023-02-14T08:55:44.294Z,70.44
2023-02-14T08:58:15.362Z,70.59
2023-02-14T09:00:46.173Z,70.75
2023-02-14T09:03:16.998Z,70.70
2023-02-14T09:05:47.866Z,70.91
2023-02-14T09:08:18.968Z,70.63
2023-02-14T09:10:49.745Z,70.53
2023-02-14T09:13:20.471Z,70.61
2023-02-14T09:15:51.549Z,70.50
2023-02-14T09:18:22.534Z,70.22
2023-02-14T09:20:53.345Z,70.62
2023-02-14T09:23:24.179Z,70.31
2023-02-14T09:26:00.583Z,70.16
2023-02-14T09:28:31.476Z,69.82
2023-02-14T09:31:12.430Z,69.38
2023-02-14T09:33:43.863Z,69.34
2023-02-14T09:36:14.634Z,69.39
2023-02-14T09:38:45.470Z,69.30
2023-02-14T09:41:44.671Z,69.25
2023-02-14T09:44:25.828Z,69.03
2023-02-14T09:47:00.548Z,68.70
2023-02-14T09:49:37.299Z,68.40
2023-02-14T09:52:15.657Z,68.75
2023-02-14T09:54:48.637Z,69.02
2023-02-14T09:57:29.003Z,69.05
2023-02-14T10:00:12.391Z,68.80
2023-02-14T10:02:50.339Z,68.48
2023-02-14T10:05:26.212Z,68.14
2023-02-14T10:08:08.590Z,68.29
2023-02-14T10:10:42.423Z,67.94
2023-02-14T10:13:19.400Z,68.15
2023-02-14T10:15:56.836Z,68.10
2023-02-14T10:18:32.377Z,68.19
2023-02-14T10:21:07.927Z,68.05
2023-02-14T10:23:42.851Z,67.93
2023-02-14T10:26:17.357Z,68.28
2023-02-14T10:28:50.152Z,68.21
2023-02-14T10:31:23.763Z,68.05
2023-02-14T10:33:58.137Z,68.19
2023-02-14T10:36:46.850Z,68.26
2023-02-14T10:39:40.732Z,68.02
2023-02-14T10:42:21.466Z,67.93
2023-02-14T10:45:02.700Z,68.02
2023-02-14T10:47:42.174Z,68.40
2023-02-14T10:50:20.407Z,68.18
2023-02-14T10:53:01.059Z,68.21
2023-02-14T10:55:45.383Z,68.39
2023-02-14T10:58:20.675Z,67.62
2023-02-14T11:01:00.888Z,68.12
2023-02-14T11:03:34.242Z,67.80
2023-02-14T11:06:05.320Z,67.75
2023-02-14T11:08:38.304Z,67.93
2023-02-14T11:11:18.208Z,68.16
2023-02-14T11:13:49.534Z,68.25
2023-02-14T11:16:32.948Z,68.01
2023-02-14T11:19:23.938Z,67.75
2023-02-14T11:21:54.586Z,67.85
2023-02-14T11:24:32.343Z,67.85
2023-02-14T11:27:05.701Z,67.99
2023-02-14T11:29:48.084Z,67.94
2023-02-14T11:32:24.019Z,68.14
2023-02-14T11:35:01.408Z,67.87
2023-02-14T11:37:37.365Z,67.60
2023-02-14T11:40:24.751Z,67.50
2023-02-14T11:43:12.776Z,67.10
2023-02-14T11:45:47.555Z,67.29
2023-02-14T11:48:39.352Z,67.03
2023-02-14T11:51:13.934Z,67.38
2023-02-14T11:53:50.192Z,67.40
2023-02-14T11:56:22.451Z,66.87
2023-02-14T11:58:57.605Z,67.04
2023-02-14T12:01:31.053Z,66.78
2023-02-14T12:04:04.258Z,66.74
2023-02-14T12:06:37.235Z,67.06
2023-02-14T12:09:13.490Z,66.99
2023-02-14T12:11:55.050Z,67.04
2023-02-14T12:14:29.289Z,66.65
2023-02-14T12:17:09.916Z,66.84
2023-02-14T12:19:48.008Z,66.90
2023-02-14T12:22:23.554Z,66.63
2023-02-14T12:25:02.938Z,66.88
2023-02-14T12:27:43.540Z,66.67
2023-02-14T12:30:18.267Z,66.64
2023-02-14T12:32:51.747Z,66.48
2023-02-14T12:35:35.885Z,65.91
2023-02-14T12:38:18.126Z,66.20
2023-02-14T12:41:02.923Z,66.50
2023-02-14T12:43:52.480Z,66.07
2023-02-14T12:46:41.901Z,65.93
2023-02-14T12:49:35.779Z,66.13
2023-02-14T12:52:22.874Z,66.49
2023-02-14T12:55:06.223Z,66.59
2023-02-14T12:57:47.122Z,66.14
2023-02-14T13:00:30.818Z,65.94
2023-02-14T13:03:17.530Z,65.98
2023-02-14T13:05:58.938Z,65.74
2023-02-14T13:08:48.514Z,65.58
2023-02-14T13:11:30.075Z,65.38
2023-02-14T13:14:14.042Z,65.57
2023-02-14T13:16:52.392Z,65.18
2023-02-14T13:19:38.012Z,65.54
2023-02-14T13:22:14.553Z,65.05
2023-02-14T13:24:48.724Z,65.20
2023-02-14T13:27:24.239Z,65.23
2023-02-14T13:29:59.257Z,65.29
2023-02-14T13:32:37.095Z,65.29
2023-02-14T13:35:09.365Z,64.36
2023-02-14T13:37:40.734Z,64.52
2023-02-14T13:40:21.932Z,64.66
2023-02-14T13:42:58.403Z,64.96
2023-02-14T13:45:56.719Z,64.97
2023-02-14T13:48:29.823Z,65.03
2023-02-14T13:51:03.204Z,65.09
2023-02-14T13:53:46.166Z,64.89
2023-02-14T13:56:36.343Z,65.45
2023-02-14T13:59:07.823Z,65.37
2023-02-14T14:01:42.260Z,65.42
2023-02-14T14:04:37.990Z,65.36
2023-02-14T14:07:27.162Z,65.66
2023-02-14T14:10:12.396Z,65.66
2023-02-14T14:12:44.677Z,66.05
2023-02-14T14:15:24.342Z,66.13
2023-02-14T14:18:30.105Z,66.16
2023-02-14T14:21:15.697Z,66.50
2023-02-14T14:23:46.658Z,66.52
2023-02-14T14:26:38.289Z,66.41
2023-02-14T14:29:19.257Z,66.20
2023-02-14T14:31:55.700Z,66.18
2023-02-14T14:34:29.399Z,66.12
2023-02-14T14:37:07.854Z,66.18
2023-02-14T14:39:39.901Z,66.20
2023-02-14T14:42:14.894Z,66.25
2023-02-14T14:44:52.790Z,66.30
2023-02-14T14:47:26.213Z,66.25
2023-02-14T14:50:06.028Z,65.90
2023-02-14T14:52:42.528Z,66.35
2023-02-14T14:55:24.510Z,66.34
2023-02-14T14:57:57.332Z,66.44
2023-02-14T15:00:30.661Z,66.34
2023-02-14T15:03:05.798Z,66.36
2023-02-14T15:05:39.571Z,66.23
2023-02-14T15:08:32.172Z,66.38
2023-02-14T15:11:07.726Z,67.87
2023-02-14T15:13:53.844Z,67.07
2023-02-14T15:16:29.118Z,66.57
2023-02-14T15:19:07.569Z,66.60
2023-02-14T15:21:43.526Z,66.60
2023-02-14T15:24:19.456Z,66.82
2023-02-14T15:26:53.508Z,66.67
2023-02-14T15:29:27.148Z,66.66
2023-02-14T15:32:05.034Z,67.04
2023-02-14T15:34:38.091Z,67.24
2023-02-14T15:37:12.420Z,66.98
2023-02-14T15:39:47.811Z,67.12
2023-02-14T15:42:29.258Z,67.03
2023-02-14T15:45:23.745Z,67.14
2023-02-14T15:47:56.647Z,67.57
2023-02-14T15:50:27.784Z,67.48
2023-02-14T15:53:08.641Z,67.64
2023-02-14T15:55:39.644Z,67.69
2023-02-14T15:58:20.349Z,67.91
2023-02-14T16:00:53.567Z,67.84
2023-02-14T16:03:27.333Z,68.00
2023-02-14T16:05:58.579Z,67.94
2023-02-14T16:08:34.212Z,67.94
2023-02-14T16:11:08.909Z,67.97
2023-02-14T16:13:42.042Z,68.02
2023-02-14T16:16:14.602Z,68.28
2023-02-14T16:18:48.127Z,68.33
2023-02-14T16:21:28.429Z,68.50
2023-02-14T16:24:23.470Z,68.61
2023-02-14T16:26:54.457Z,68.68
2023-02-14T16:29:25.268Z,68.70
2023-02-14T16:32:15.566Z,68.70
2023-02-14T16:34:48.455Z,68.95
2023-02-14T16:37:26.304Z,68.99
2023-02-14T16:40:01.463Z,69.22
2023-02-14T16:42:37.303Z,69.23
2023-02-14T16:45:15.241Z,69.34
2023-02-14T16:47:47.170Z,69.47
2023-02-14T16:50:20.572Z,69.51
2023-02-14T16:52:55.868Z,69.68
2023-02-14T16:55:29.996Z,69.70
2023-02-14T16:58:03.932Z,69.72
2023-02-14T17:00:34.563Z,69.76
2023-02-14T17:03:11.732Z,69.75
2023-02-14T17:05:43.457Z,69.95
2023-02-14T17:08:16.235Z,69.93
2023-02-14T17:10:49.976Z,70.04
2023-02-14T17:13:25.410Z,69.95
2023-02-14T17:16:01.920Z,70.04
2023-02-14T17:18:35.035Z,69.96
2023-02-14T17:21:05.561Z,70.38
2023-02-14T17:23:36.763Z,70.57
2023-02-14T17:26:08.063Z,70.53
2023-02-14T17:28:39.384Z,70.64
2023-02-14T17:31:10.282Z,70.54
2023-02-14T17:33:41.225Z,70.67
2023-02-14T17:36:13.555Z,70.70
2023-02-14T17:38:44.966Z,70.80
2023-02-14T17:41:18.675Z,70.60
2023-02-14T17:43:49.619Z,70.80
2023-02-14T17:46:20.436Z,70.87
2023-02-14T17:48:51.538Z,71.17
2023-02-14T17:51:22.313Z,71.07
2023-02-14T17:53:53.112Z,71.06
2023-02-14T17:56:26.057Z,71.23
2023-02-14T17:58:57.554Z,71.21
2023-02-14T18:01:33.009Z,71.33
2023-02-14T18:04:05.713Z,71.45
2023-02-14T18:06:37.363Z,71.68
2023-02-14T18:09:08.848Z,71.71
2023-02-14T18:11:44.312Z,71.97
2023-02-14T18:14:15.338Z,72.03
2023-02-14T18:16:56.122Z,72.21
2023-02-14T18:19:29.988Z,72.63
2023-02-14T18:22:15.115Z,72.89
2023-02-14T18:24:44.333Z,72.76
2023-02-14T18:27:16.197Z,72.78
2023-02-14T18:29:46.938Z,72.67
2023-02-14T18:32:17.634Z,72.67
2023-02-14T18:34:48.701Z,73.12
2023-02-14T18:37:19.819Z,72.75
2023-02-14T18:39:50.564Z,72.84
2023-02-14T18:42:21.757Z,72.86
2023-02-14T18:44:52.477Z,73.07
2023-02-14T18:47:23.222Z,73.17
2023-02-14T18:49:54.018Z,73.37
2023-02-14T18:52:25.414Z,73.16
2023-02-14T18:54:58.537Z,73.40
2023-02-14T18:57:29.411Z,73.26
2023-02-14T19:00:00.541Z,73.26
2023-02-14T19:02:31.410Z,73.59
2023-02-14T19:05:02.091Z,73.41
2023-02-14T19:07:33.044Z,73.16
2023-02-14T19:10:06.094Z,72.89
2023-02-14T19:12:35.500Z,73.51
2023-02-14T19:15:06.928Z,73.38
2023-02-14T19:17:38.358Z,73.44
2023-02-14T19:20:11.175Z,73.80
2023-02-14T19:22:42.268Z,74.02
2023-02-14T19:25:13.613Z,73.45
2023-02-14T19:27:44.369Z,73.30
2023-02-14T19:30:16.137Z,73.19
2023-02-14T19:32:46.923Z,73.50
2023-02-14T19:35:17.620Z,73.36
2023-02-14T19:37:48.863Z,73.59
2023-02-14T19:40:20.537Z,73.48
2023-02-14T19:42:51.178Z,73.71
2023-02-14T19:45:22.025Z,73.86
2023-02-14T19:47:53.099Z,74.00
2023-02-14T19:50:24.006Z,74.24
2023-02-14T19:52:55.098Z,74.19
2023-02-14T19:55:27.608Z,74.36
2023-02-14T19:57:58.893Z,74.23
2023-02-14T20:00:29.776Z,74.44
2023-02-14T20:03:04.137Z,74.43
2023-02-14T20:05:38.071Z,74.21
2023-02-14T20:08:08.999Z,74.37
2023-02-14T20:10:39.641Z,74.23
2023-02-14T20:13:10.566Z,74.56
2023-02-14T20:15:41.615Z,74.35
2023-02-14T20:18:12.323Z,74.68
2023-02-14T20:21:03.616Z,74.55
2023-02-14T20:23:34.925Z,76.21
2023-02-14T20:26:05.632Z,75.25
2023-02-14T20:28:36.555Z,74.73
2023-02-14T20:31:11.160Z,74.44
2023-02-14T20:33:42.420Z,74.85
2023-02-14T20:36:13.192Z,74.79
2023-02-14T20:38:43.987Z,74.87
2023-02-14T20:41:17.103Z,75.09
2023-02-14T20:43:46.252Z,75.16
2023-02-14T20:46:17.221Z,75.22
2023-02-14T20:48:48.255Z,75.26
2023-02-14T20:51:20.561Z,75.39
2023-02-14T20:53:51.403Z,75.35
2023-02-14T20:56:22.817Z,75.08
2023-02-14T20:58:53.683Z,75.46
2023-02-14T21:01:26.291Z,75.40
2023-02-14T21:03:57.139Z,75.72
2023-02-14T21:06:31.030Z,75.57
2023-02-14T21:09:02.622Z,75.41
2023-02-14T21:11:33.330Z,75.40
2023-02-14T21:14:04.963Z,75.52
2023-02-14T21:16:35.653Z,75.49
2023-02-14T21:19:06.770Z,75.50
2023-02-14T21:21:38.940Z,75.69
2023-02-14T21:24:12.797Z,75.42
2023-02-14T21:26:44.170Z,75.40
2023-02-14T21:29:15.367Z,75.59
2023-02-14T21:31:46.311Z,75.40
2023-02-14T21:34:18.325Z,75.68
2023-02-14T21:36:49.154Z,75.39
2023-02-14T21:39:20.911Z,75.44
2023-02-14T21:41:51.650Z,75.15
2023-02-14T21:44:36.276Z,75.40
2023-02-14T21:47:07.170Z,75.15
2023-02-14T21:49:55.984Z,74.77
2023-02-14T21:52:26.873Z,74.47
2023-02-14T21:54:57.754Z,75.02
2023-02-14T21:57:28.620Z,74.89
2023-02-14T21:59:59.228Z,75.09
2023-02-14T22:02:30.079Z,75.39
2023-02-14T22:05:01.579Z,75.43
2023-02-14T22:07:32.258Z,74.99
2023-02-14T22:10:03.288Z,74.70
2023-02-14T22:12:34.149Z,74.35
2023-02-14T22:15:05.380Z,74.60
2023-02-14T22:17:37.758Z,74.57
2023-02-14T22:20:11.267Z,74.52
2023-02-14T22:22:41.922Z,74.39
2023-02-14T22:25:12.636Z,74.26
2023-02-14T22:27:43.338Z,74.51
2023-02-14T22:30:14.983Z,74.08
2023-02-14T22:32:45.863Z,74.19
2023-02-14T22:35:16.870Z,74.84
2023-02-14T22:37:47.991Z,75.01
2023-02-14T22:40:19.277Z,74.64
2023-02-14T22:42:49.875Z,74.67
2023-02-14T22:45:20.795Z,74.85
2023-02-14T22:47:51.601Z,74.68
2023-02-14T22:50:22.610Z,74.51
2023-02-14T22:52:53.263Z,74.40
2023-02-14T22:55:23.948Z,74.56
2023-02-14T22:57:54.648Z,74.42
2023-02-14T23:00:26.039Z,74.66
2023-02-14T23:02:56.875Z,74.50
2023-02-14T23:05:28.101Z,74.56
2023-02-14T23:07:58.922Z,74.73
2023-02-14T23:10:29.742Z,74.53
2023-02-14T23:13:18.443Z,74.27
2023-02-14T23:16:06.868Z,76.95
2023-02-14T23:19:03.426Z,81.54
2023-02-14T23:21:51.621Z,82.57
2023-02-14T23:24:22.654Z,80.53
2023-02-14T23:26:54.785Z,80.37
2023-02-14T23:29:25.786Z,80.96
2023-02-14T23:31:56.720Z,81.56
2023-02-14T23:34:30.378Z,80.46
2023-02-14T23:37:01.299Z,79.38
2023-02-14T23:39:35.776Z,78.39
2023-02-14T23:42:07.587Z,76.88
2023-02-14T23:44:38.642Z,76.30
2023-02-14T23:47:10.676Z,77.52
2023-02-14T23:49:42.928Z,76.81
2023-02-14T23:52:15.203Z,74.70
2023-02-14T23:54:46.044Z,74.25
2023-02-14T23:57:16.690Z,73.96
2023-02-14T23:59:47.368Z,74.56
